METAR Data
IDs: Format: Raw Decoded Include TAF

Data at: 0218 UTC 24 Sep 2018

KNEW 240153Z 14006KT 10SM CLR 27/23 A2993 RMK AO2 SLP128 T02720228 $
KNEW 240053Z 14007KT 10SM CLR 27/22 A2991 RMK AO2 SLP121 T02720222 $
KNEW 232353Z 13007KT 10SM CLR 28/22 A2990 RMK AO2 SLP118 60001 T02780222 10322 20272 51003 $
KNEW 232253Z 11009KT 10SM CLR 27/23 A2990 RMK AO2 SLP118 T02720228 $
KNEW 232153Z 04008KT 10SM FEW055 SCT075 BKN110 28/23 A2990 RMK AO2 WSHFT 2109 RAB23E52 SLP119 P0001 T02830233 $
KNEW 232129Z 03009KT 360V060 9SM -RA SCT039 BKN047 OVC100 28/24 A2990 RMK AO2 WSHFT 2109 RAB23 P0001 T02830239 $
KNEW 232053Z 21010KT 10SM BKN037 BKN055 32/23 A2989 RMK AO2 SLP115 T03220228 56021 $
KNEW 231953Z 14007KT 10SM BKN045 OVC080 31/22 A2990 RMK AO2 SLP119 T03110222 $
KNEW 231853Z 07010KT 10SM BKN042 31/23 A2994 RMK AO2 SLP131 T03110228 $
KNEW 231753Z 19011KT 10SM SCT041 32/23 A2995 RMK AO2 SLP137 T03170233 10322 20261 $
KNEW 231553Z 18005KT 10SM FEW029 SCT037 BKN048 30/23 A2999 RMK AO2 SLP147 T03000228
KNEW 231506Z 14008KT 10SM SCT026 SCT035 31/23 A2998 RMK AO2 T03060228
KNEW 231453Z 16007KT 10SM BKN026 BKN037 29/23 A2998 RMK AO2 SLP145 T02940233 51013
KNEW 231353Z 13006KT 10SM CLR 29/24 A2997 RMK AO2 SLP143 T02890239
KNEW 231253Z 13004KT 10SM CLR 28/24 A2996 RMK AO2 SLP140 T02780244
KNEW 231153Z AUTO 13004KT 10SM CLR 26/23 A2994 RMK AO2 SLP133 70039 T02610233 10267 20261 53005
KNEW 231053Z AUTO 13004KT 10SM CLR 26/23 A2994 RMK AO2 SLP133 T02610233
KNEW 230953Z AUTO 16003KT 10SM CLR 26/23 A2993 RMK AO2 SLP128 T02610228
KNEW 230853Z AUTO 14005KT 10SM CLR 26/23 A2993 RMK AO2 SLP128 T02610228 56011
KNEW 230753Z AUTO 15005KT 10SM CLR 27/23 A2994 RMK AO2 SLP131 T02670228
KNEW 230653Z AUTO 15006KT 10SM CLR 27/23 A2995 RMK AO2 SLP135 T02670228
KNEW 230553Z AUTO 16005KT 10SM CLR 27/23 A2996 RMK AO2 SLP139 T02670233 10289 20261 403280250 56008
KNEW 230453Z AUTO 14003KT 10SM CLR 27/23 A2997 RMK AO2 SLP141 T02670228
KNEW 230353Z AUTO 13003KT 10SM CLR 27/23 A2998 RMK AO2 SLP145 T02720228
KNEW 230253Z AUTO 11005KT 10SM CLR 27/23 A2999 RMK AO2 SLP147 T02720228 53008
KNEW 230153Z 12004KT 10SM CLR 27/23 A2998 RMK AO2 LTG DSNT E SLP145 T02670228
KNEW 230053Z 25006KT 10SM CLR 27/23 A2997 RMK AO2 SLP141 T02720228
KNEW 222353Z 27007KT 10SM CLR 28/23 A2996 RMK AO2 SLP139 60039 T02830233 10317 20250 53005
KNEW 222253Z 17007KT 10SM SCT120 30/22 A2995 RMK AO2 LTG DSNT SW SLP137 T03000222
KNEW 222153Z 15008KT 10SM CLR 30/22 A2994 RMK AO2 LTG DSNT W SLP132 T03000222
KNEW 222053Z 13007KT 10SM CLR 29/22 A2995 RMK AO2 RAE1958 SLP135 P0000 60039 T02940222 58013
KNEW 221953Z 10005KT 5SM -RA SCT090 BKN110 27/23 A2996 RMK AO2 PK WND 18032/1908 WSHFT 1841 LTG DSNT W RAB00 SLP140 P0039 T02670228
KNEW 221936Z 10006KT 5SM -RA SCT025 BKN090 OVC110 26/23 A2998 RMK AO2 PK WND 18032/1908 WSHFT 1841 LTG DSNT W RAB00 P0039 T02560228
KNEW 221927Z 10008KT 2SM +RA SCT031 BKN060 OVC090 25/22 A2998 RMK AO2 PK WND 18032/1908 WSHFT 1841 LTG DSNT W RAB00 P0038 T02500222
KNEW 221922Z 10011KT 1SM +RA BKN029 BKN048 OVC080 25/22 A2999 RMK AO2 PK WND 18032/1908 WSHFT 1841 LTG DSNT NW RAB00 P0037 T02500222
KNEW 221916Z 13009G31KT 1/2SM +TSRA BKN025 BKN042 OVC055 26/21 A2999 RMK AO2 PK WND 18032/1908 WSHFT 1841 LTG DSNT W AND NW RAB00 P0032 T02610211
KNEW 221907Z 15024G31KT 1 1/2SM +TSRA BR SCT034 BKN060 OVC100 25/23 A3000 RMK AO2 PK WND 16031/1907 WSHFT 1841 LTG DSNT W AND NW RAB00 P0005 T02500233
KNEW 221901Z 14019G25KT 9SM -TSRA FEW031 SCT038 BKN048 27/23 A2999 RMK AO2 WSHFT 1841 LTG DSNT W RAB00 P0000 T02670228
KNEW 221853Z 12019G25KT 10SM TS SCT037 SCT044 BKN095 28/22 A2999 RMK AO2 WSHFT 1743 LTG DSNT S AND W TSB46 SLP148 T02830222
KNEW 221803Z 20010KT 10SM FEW034 SCT046 SCT085 32/23 A2999 RMK AO2 WSHFT 1743 LTG DSNT N AND S T03170233
KNEW 221753Z 20011KT 10SM FEW034 31/23 A2999 RMK AO2 SLP149 T03110228 10328 20272 58007
KNEW 221653Z 11009KT 10SM FEW030 FEW039 32/23 A3001 RMK AO2 SLP154 T03170233
KNEW 221553Z VRB04KT 10SM SCT028 SCT035 BKN042 31/25 A3001 RMK AO2 SLP157 T03060250
KNEW 221453Z COR 16009KT 10SM FEW025 SCT034 29/24 A3001 RMK AO2 SLP156 T02940244 50008